KBCE/BCE METAR and TAF weather

Enter ICAO airport designator
Station Type Date Time Source
KBCE METAR 2019/04/19 21:53 UTC NOAA

KBCE 192153Z AUTO VRB06G18KT 10SM CLR 18/M04 A3022 RMK AO2 SLP152 T01831044


Station Type Date Time Source
KBCE Decoded METAR 2019/04/19 21:53 UTC NOAA

BRYCE CANYON AIRPORT, UT, United States (KBCE) 37-42N 112-09W 2312M
Apr 19, 2019 - 05:53 PM EDT / 2019.04.19 2153 UTC
Wind: Variable at 7 MPH (6 KT) gusting to 21 MPH (18 KT):0
Visibility: 10 mile(s):0
Sky conditions: clear
Temperature: 64.9 F (18.3 C)
Dew Point: 24.1 F (-4.4 C)
Relative Humidity: 20%
Pressure (altimeter): 30.22 in. Hg (1023 hPa)
ob: KBCE 192153Z AUTO VRB06G18KT 10SM CLR 18/M04 A3022 RMK AO2 SLP152 T01831044
cycle: 22

Station Type Date Time Source
KBCE TAF 2019/04/19 18:24 UTC NOAA

TAF KBCE 191721Z 1918/2018 15009KT P6SM FEW250
FM192000 17010G17KT P6SM SCT250
FM200000 17009KT P6SM FEW150 SCT200
FM200500 26006KT P6SM FEW120 BKN200
FM201500 17008KT P6SM FEW080 SCT100 BKN120

Example: see airport list